Time;durP1;ratioP1;P1;durP2;ratioP2;P2;SDS_P1;SDS_P2;PMS_P1;PMS_P2;Temp;Humidity;BMP_temperature;BMP_pressure;BME280_temperature;BME280_humidity;BME280_pressure;Samples;Min_cycle;Max_cycle;Signal;HPM_P1;HPM_P2
2023/12/14 00:01:14;;;;;;;1.85;1.20;;;6.00;99.90;;;;;;5023362;28;20061;-72
2023/12/14 00:03:41;;;;;;;2.63;1.00;;;6.00;99.90;;;;;;5018699;28;20041;-72
2023/12/14 00:06:10;;;;;;;1.92;1.35;;;6.00;99.90;;;;;;5024159;28;20539;-72
2023/12/14 00:08:36;;;;;;;2.30;1.42;;;6.00;99.90;;;;;;5023435;28;20090;-72
2023/12/14 00:11:06;;;;;;;1.58;1.10;;;6.00;99.90;;;;;;5023286;28;20048;-72
2023/12/14 00:13:32;;;;;;;1.27;0.95;;;6.00;99.90;;;;;;5023364;28;20048;-72
2023/12/14 00:15:58;;;;;;;1.40;0.80;;;6.00;99.90;;;;;;5016200;28;20049;-72
2023/12/14 00:18:24;;;;;;;1.60;1.15;;;6.00;99.90;;;;;;5022862;28;20103;-72
2023/12/14 00:20:49;;;;;;;2.67;1.52;;;5.90;99.90;;;;;;5007791;28;20043;-72
2023/12/14 00:23:15;;;;;;;1.15;0.60;;;6.00;99.90;;;;;;5013719;28;20036;-72
2023/12/14 00:25:41;;;;;;;0.57;0.57;;;5.90;99.90;;;;;;5020871;28;20095;-72
2023/12/14 00:28:07;;;;;;;1.95;0.93;;;5.90;99.90;;;;;;5025241;28;20102;-72
2023/12/14 00:30:32;;;;;;;3.72;1.38;;;5.90;99.90;;;;;;5024349;28;20041;-72
2023/12/14 00:32:58;;;;;;;4.47;0.73;;;5.90;99.90;;;;;;5017964;28;20073;-72
2023/12/14 00:35:24;;;;;;;2.28;1.08;;;5.90;99.90;;;;;;5019889;28;20563;-72
2023/12/14 00:37:49;;;;;;;1.30;1.00;;;6.00;99.90;;;;;;5023857;28;20044;-72
2023/12/14 00:40:15;;;;;;;2.28;1.35;;;5.90;99.90;;;;;;5022978;28;20037;-72
2023/12/14 00:42:41;;;;;;;3.58;0.80;;;5.90;99.90;;;;;;5020450;28;20121;-72
2023/12/14 00:45:07;;;;;;;1.38;0.90;;;5.90;99.90;;;;;;5023346;28;20095;-72
2023/12/14 00:47:33;;;;;;;1.52;0.95;;;5.90;99.90;;;;;;5020687;28;20090;-72
2023/12/14 00:49:58;;;;;;;1.38;0.65;;;5.90;99.90;;;;;;5007456;28;20034;-72
2023/12/14 00:52:24;;;;;;;1.48;0.95;;;5.90;99.90;;;;;;5008842;28;20477;-72
2023/12/14 00:54:50;;;;;;;1.95;1.23;;;5.90;99.90;;;;;;5026089;28;20041;-72
2023/12/14 00:57:16;;;;;;;1.17;0.88;;;5.90;99.90;;;;;;5039728;28;20025;-72
2023/12/14 00:59:41;;;;;;;1.27;0.88;;;5.90;99.90;;;;;;5019245;28;20037;-72
2023/12/14 01:02:07;;;;;;;3.15;1.83;;;5.90;99.90;;;;;;5016931;28;20136;-72
2023/12/14 01:04:33;;;;;;;1.90;0.93;;;5.90;99.90;;;;;;5040975;28;20553;-72
2023/12/14 01:06:59;;;;;;;0.82;0.60;;;5.90;99.90;;;;;;5016219;28;20037;-72
2023/12/14 01:09:24;;;;;;;1.95;1.00;;;5.90;99.90;;;;;;5023407;28;20075;-72
2023/12/14 01:11:50;;;;;;;2.60;1.05;;;5.80;99.90;;;;;;5015328;28;20037;-72
2023/12/14 01:14:16;;;;;;;1.98;1.00;;;5.80;99.90;;;;;;5017577;28;20042;-72
2023/12/14 01:16:42;;;;;;;1.70;1.05;;;5.80;99.90;;;;;;5017064;28;20099;-72
2023/12/14 01:19:07;;;;;;;2.33;1.15;;;5.80;99.90;;;;;;5006658;28;20053;-72
2023/12/14 01:21:33;;;;;;;1.77;1.20;;;5.80;99.90;;;;;;5002127;28;20065;-72
2023/12/14 01:24:00;;;;;;;1.77;0.80;;;5.80;99.90;;;;;;5023140;28;20040;-72
2023/12/14 01:26:26;;;;;;;5.05;0.98;;;5.80;99.90;;;;;;5019022;28;20037;-72
2023/12/14 01:28:52;;;;;;;0.75;0.65;;;5.80;99.90;;;;;;5024961;28;20041;-72
2023/12/14 01:31:18;;;;;;;2.90;1.05;;;5.80;99.90;;;;;;5017619;28;20059;-72
2023/12/14 01:33:45;;;;;;;2.28;0.98;;;5.80;99.90;;;;;;5020055;28;20091;-72
2023/12/14 01:36:11;;;;;;;2.38;1.73;;;5.80;99.90;;;;;;5022360;28;20387;-72
2023/12/14 01:38:37;;;;;;;1.67;1.10;;;5.70;99.90;;;;;;5021330;28;20180;-72
2023/12/14 01:41:03;;;;;;;1.30;1.02;;;5.70;99.90;;;;;;5021554;28;20045;-72
2023/12/14 01:43:29;;;;;;;2.03;1.05;;;5.70;99.90;;;;;;5010402;28;20037;-72
2023/12/14 01:45:55;;;;;;;3.17;1.42;;;5.70;99.90;;;;;;5023809;28;20045;-72
2023/12/14 01:48:21;;;;;;;1.80;1.23;;;5.70;99.90;;;;;;5009478;28;20044;-72
2023/12/14 01:50:47;;;;;;;1.83;1.42;;;5.70;99.90;;;;;;5018517;28;20104;-72
2023/12/14 01:53:12;;;;;;;1.42;0.70;;;5.70;99.90;;;;;;5006526;28;20456;-72
2023/12/14 01:55:38;;;;;;;2.00;0.70;;;5.70;99.90;;;;;;5011977;28;20045;-72
2023/12/14 01:58:04;;;;;;;1.50;1.23;;;5.70;99.90;;;;;;5022803;28;20099;-72
2023/12/14 02:00:42;;;;;;;1.77;1.48;;;5.60;99.90;;;;;;5022336;28;20145;-72
2023/12/14 02:03:08;;;;;;;1.48;0.90;;;5.60;99.90;;;;;;5024562;28;20047;-72
2023/12/14 02:05:34;;;;;;;1.20;0.65;;;5.60;99.90;;;;;;5038414;28;20037;-72
2023/12/14 02:08:00;;;;;;;1.98;1.15;;;5.60;99.90;;;;;;5028063;28;20048;-72
2023/12/14 02:10:25;;;;;;;0.63;0.20;;;5.60;99.90;;;;;;5021090;28;20051;-72
2023/12/14 02:12:51;;;;;;;1.48;1.00;;;5.60;99.90;;;;;;5022333;28;20142;-72
2023/12/14 02:15:17;;;;;;;3.95;1.23;;;5.60;99.90;;;;;;5023716;28;20049;-72
2023/12/14 02:17:42;;;;;;;2.42;1.23;;;5.60;99.90;;;;;;5024299;28;20079;-72
2023/12/14 02:20:09;;;;;;;1.73;0.95;;;5.60;99.90;;;;;;5022681;28;20143;-72
2023/12/14 02:22:56;;;;;;;1.88;1.00;;;5.60;99.90;;;;;;5023566;28;20469;-72
2023/12/14 02:25:23;;;;;;;1.02;0.80;;;5.60;99.90;;;;;;5019076;28;20048;-72
2023/12/14 02:27:50;;;;;;;2.45;1.20;;;5.60;99.90;;;;;;5017663;28;20037;-72
2023/12/14 02:30:16;;;;;;;2.38;0.55;;;5.60;99.90;;;;;;5018205;28;20042;-72
2023/12/14 02:32:42;;;;;;;2.10;1.10;;;5.60;99.90;;;;;;5003510;28;20156;-72
2023/12/14 02:35:08;;;;;;;0.65;0.52;;;5.50;99.90;;;;;;5021348;28;20561;-72
2023/12/14 02:37:37;;;;;;;1.67;0.60;;;5.50;99.90;;;;;;5017950;28;20037;-72
2023/12/14 02:40:04;;;;;;;2.10;0.80;;;5.50;99.90;;;;;;5024742;28;20514;-72
2023/12/14 02:42:30;;;;;;;0.68;0.47;;;5.50;99.90;;;;;;5024930;28;20037;-72
2023/12/14 02:44:56;;;;;;;2.17;1.38;;;5.50;99.90;;;;;;5016109;28;20092;-72
2023/12/14 02:47:23;;;;;;;1.83;0.90;;;5.50;99.90;;;;;;5020169;28;20041;-72
2023/12/14 02:49:48;;;;;;;1.45;0.73;;;5.50;99.90;;;;;;5021563;28;20045;-72
2023/12/14 02:52:14;;;;;;;2.33;1.02;;;5.50;99.90;;;;;;5019585;28;20045;-72
2023/12/14 02:54:40;;;;;;;1.85;1.23;;;5.50;99.90;;;;;;5022643;28;20037;-72
2023/12/14 02:57:06;;;;;;;2.75;0.77;;;5.50;99.90;;;;;;5006093;28;20474;-72
2023/12/14 02:59:32;;;;;;;2.53;0.75;;;5.50;99.90;;;;;;5021189;28;20096;-72
2023/12/14 03:01:58;;;;;;;2.05;1.05;;;5.60;99.90;;;;;;5020612;28;20060;-72
2023/12/14 03:04:24;;;;;;;1.33;0.73;;;5.50;99.90;;;;;;5039512;28;20060;-72
2023/12/14 03:06:50;;;;;;;2.45;1.45;;;5.60;99.90;;;;;;5023909;28;20041;-72
2023/12/14 03:09:16;;;;;;;3.67;1.33;;;5.50;99.90;;;;;;5040218;28;20049;-72
2023/12/14 03:11:42;;;;;;;2.28;1.20;;;5.50;99.90;;;;;;5020497;28;20045;-72
2023/12/14 03:14:07;;;;;;;3.00;1.67;;;5.50;99.90;;;;;;5019131;28;20045;-72
2023/12/14 03:16:35;;;;;;;2.55;0.75;;;5.50;99.90;;;;;;5015787;28;20092;-72
2023/12/14 03:19:01;;;;;;;1.45;0.98;;;5.50;99.90;;;;;;5021409;28;20054;-72
2023/12/14 03:21:27;;;;;;;0.95;0.60;;;5.50;99.90;;;;;;5020332;28;20049;-72
2023/12/14 03:23:52;;;;;;;2.03;0.88;;;5.50;99.90;;;;;;5026572;28;20421;-72
2023/12/14 03:26:18;;;;;;;1.52;0.52;;;5.50;99.90;;;;;;5008837;28;20048;-72
2023/12/14 03:28:44;;;;;;;2.60;0.57;;;5.50;99.90;;;;;;5020331;28;20041;-72
2023/12/14 03:31:13;;;;;;;1.35;1.13;;;5.50;99.90;;;;;;5017370;28;20581;-72
2023/12/14 03:33:40;;;;;;;1.58;0.88;;;5.50;99.90;;;;;;5019989;28;20038;-72
2023/12/14 03:36:06;;;;;;;0.52;0.43;;;5.50;99.90;;;;;;5019426;28;20519;-72
2023/12/14 03:38:33;;;;;;;1.95;1.02;;;5.50;99.90;;;;;;5020682;28;20050;-72
2023/12/14 03:40:59;;;;;;;1.98;0.80;;;5.50;99.90;;;;;;5018493;28;20116;-72
2023/12/14 03:43:25;;;;;;;0.65;0.52;;;5.50;99.90;;;;;;5021252;28;20136;-72
2023/12/14 03:45:51;;;;;;;1.55;0.77;;;5.50;99.90;;;;;;5015321;28;20042;-72
2023/12/14 03:48:16;;;;;;;1.33;0.90;;;5.60;99.90;;;;;;5020844;28;20046;-72
2023/12/14 03:50:42;;;;;;;3.20;1.25;;;5.50;99.90;;;;;;5021089;28;20045;-72
2023/12/14 03:53:08;;;;;;;0.82;0.50;;;5.50;99.90;;;;;;5019259;28;20374;-72
2023/12/14 03:55:34;;;;;;;2.40;1.23;;;5.50;99.90;;;;;;5018711;28;20045;-72
2023/12/14 03:57:59;;;;;;;1.73;1.25;;;5.50;99.90;;;;;;5017340;28;20053;-72
2023/12/14 04:00:25;;;;;;;2.08;1.27;;;5.50;99.90;;;;;;5018206;28;20103;-72
2023/12/14 04:02:51;;;;;;;2.45;0.90;;;5.50;99.90;;;;;;5028202;28;20106;-72
2023/12/14 04:05:17;;;;;;;2.00;0.95;;;5.50;99.90;;;;;;5029681;28;20038;-72
2023/12/14 04:07:43;;;;;;;1.42;0.82;;;5.50;99.90;;;;;;5038885;28;20041;-72
2023/12/14 04:10:10;;;;;;;1.70;1.05;;;5.50;99.90;;;;;;5022617;28;20045;-72
2023/12/14 04:12:36;;;;;;;2.22;1.17;;;5.50;99.90;;;;;;5018989;28;20040;-72
2023/12/14 04:15:03;;;;;;;2.78;1.05;;;5.50;99.90;;;;;;5024821;28;20037;-72
2023/12/14 04:17:30;;;;;;;2.15;1.45;;;5.50;99.90;;;;;;5016875;28;20030;-72
2023/12/14 04:19:56;;;;;;;1.67;1.25;;;5.50;99.90;;;;;;5042376;28;20072;-72
2023/12/14 04:22:22;;;;;;;1.83;0.77;;;5.50;99.90;;;;;;5022121;28;20126;-72
2023/12/14 04:24:48;;;;;;;4.78;1.58;;;5.50;99.90;;;;;;5025846;28;20041;-72
2023/12/14 04:27:14;;;;;;;2.53;1.42;;;5.50;99.90;;;;;;5021125;28;20037;-73
2023/12/14 04:29:40;;;;;;;5.63;1.42;;;5.50;99.90;;;;;;5007639;28;20059;-72
2023/12/14 04:32:06;;;;;;;2.95;1.58;;;5.50;99.90;;;;;;5017700;28;20049;-72
2023/12/14 04:34:32;;;;;;;6.65;1.60;;;5.50;99.90;;;;;;5026432;28;20115;-72
2023/12/14 04:36:57;;;;;;;3.45;2.10;;;5.50;99.90;;;;;;5018564;28;20119;-72
2023/12/14 04:39:24;;;;;;;3.67;0.85;;;5.50;99.90;;;;;;5024092;28;20072;-72
2023/12/14 04:41:52;;;;;;;2.42;1.50;;;5.50;99.90;;;;;;5022297;28;20214;-72
2023/12/14 04:44:21;;;;;;;1.17;0.70;;;5.50;99.90;;;;;;5022755;28;20048;-72
2023/12/14 04:46:47;;;;;;;3.50;1.35;;;5.60;99.90;;;;;;5022914;28;20408;-72
2023/12/14 04:49:13;;;;;;;2.40;1.17;;;5.50;99.90;;;;;;5024670;28;20396;-72
2023/12/14 04:51:39;;;;;;;2.55;1.30;;;5.50;99.90;;;;;;5022373;28;20082;-72
2023/12/14 04:54:05;;;;;;;2.70;1.00;;;5.50;99.90;;;;;;5023982;28;20521;-72
2023/12/14 04:56:31;;;;;;;4.53;1.15;;;5.50;99.90;;;;;;5021411;28;20128;-72
2023/12/14 04:58:56;;;;;;;2.92;0.73;;;5.60;99.90;;;;;;5019798;28;20045;-72
2023/12/14 05:01:22;;;;;;;2.13;1.25;;;5.50;99.90;;;;;;5020756;28;20089;-72
2023/12/14 05:03:48;;;;;;;2.88;0.98;;;5.50;99.90;;;;;;5014628;28;20489;-72
2023/12/14 05:06:14;;;;;;;1.98;0.82;;;5.50;99.90;;;;;;5024010;28;20463;-72
2023/12/14 05:08:39;;;;;;;3.15;1.35;;;5.50;99.90;;;;;;5021670;28;20044;-72
2023/12/14 05:11:05;;;;;;;1.35;0.75;;;5.60;99.90;;;;;;5026348;28;20045;-72
2023/12/14 05:13:31;;;;;;;2.65;1.35;;;5.60;99.90;;;;;;5026882;28;20056;-72
2023/12/14 05:16:00;;;;;;;1.40;1.20;;;5.50;99.90;;;;;;5025186;28;20481;-72
2023/12/14 05:18:27;;;;;;;1.95;1.00;;;5.50;99.90;;;;;;5044050;28;20277;-72
2023/12/14 05:20:53;;;;;;;3.13;1.88;;;5.60;99.90;;;;;;5027664;28;20069;-72
2023/12/14 05:23:19;;;;;;;1.83;1.35;;;5.50;99.90;;;;;;5026207;28;20487;-72
2023/12/14 05:25:45;;;;;;;5.07;1.83;;;5.60;99.90;;;;;;5009681;28;20105;-72
2023/12/14 05:28:10;;;;;;;2.63;1.10;;;5.50;99.90;;;;;;5025345;28;20072;-72
2023/12/14 05:30:36;;;;;;;3.25;1.80;;;5.50;99.90;;;;;;5027361;28;20037;-72
2023/12/14 05:33:02;;;;;;;1.95;0.90;;;5.50;99.90;;;;;;5030049;28;20042;-72
2023/12/14 05:35:28;;;;;;;3.55;1.30;;;5.50;99.90;;;;;;5028511;28;20072;-72
2023/12/14 05:37:54;;;;;;;1.95;1.38;;;5.50;99.90;;;;;;5023941;28;20060;-72
2023/12/14 05:40:19;;;;;;;1.58;0.98;;;5.40;99.90;;;;;;5027324;28;20033;-72
2023/12/14 05:42:45;;;;;;;4.35;1.13;;;5.50;99.90;;;;;;5026013;28;20108;-72
2023/12/14 05:45:11;;;;;;;1.52;1.00;;;5.50;99.90;;;;;;5030575;28;20033;-72
2023/12/14 05:47:38;;;;;;;2.72;1.10;;;5.50;99.90;;;;;;5025463;28;20212;-72
2023/12/14 05:50:04;;;;;;;4.00;1.70;;;5.50;99.90;;;;;;5030797;28;20484;-72
2023/12/14 05:52:30;;;;;;;2.40;1.33;;;5.50;99.90;;;;;;5023888;28;20120;-72
2023/12/14 05:54:56;;;;;;;2.83;1.10;;;5.50;99.90;;;;;;5021656;28;20453;-72
2023/12/14 05:57:22;;;;;;;3.10;1.23;;;5.50;99.90;;;;;;5015646;28;20065;-72
2023/12/14 05:59:47;;;;;;;4.32;1.25;;;5.50;99.90;;;;;;5030093;28;20099;-72
2023/12/14 06:02:13;;;;;;;1.40;1.30;;;5.50;99.90;;;;;;5021586;28;20049;-72
2023/12/14 06:04:39;;;;;;;3.28;1.38;;;5.50;99.90;;;;;;5021752;28;20034;-72
2023/12/14 06:07:04;;;;;;;3.65;1.90;;;5.50;99.90;;;;;;5019295;28;20060;-72
2023/12/14 06:09:34;;;;;;;3.38;1.88;;;5.50;99.90;;;;;;5020730;28;20073;-72
2023/12/14 06:12:03;;;;;;;2.42;1.42;;;5.50;99.90;;;;;;5015588;28;20041;-72
2023/12/14 06:14:29;;;;;;;1.92;1.00;;;5.50;99.90;;;;;;5037317;28;20116;-73
2023/12/14 06:16:56;;;;;;;5.55;1.10;;;5.50;99.90;;;;;;5022353;28;20129;-72
2023/12/14 06:19:22;;;;;;;2.05;1.17;;;5.50;99.90;;;;;;5023895;28;20048;-72
2023/12/14 06:21:48;;;;;;;4.65;1.52;;;5.50;99.90;;;;;;5023295;28;20167;-72
2023/12/14 06:24:14;;;;;;;1.55;1.23;;;5.50;99.90;;;;;;5014831;28;20073;-72
2023/12/14 06:26:42;;;;;;;2.20;1.27;;;5.50;99.90;;;;;;5026058;28;20405;-72
2023/12/14 06:29:09;;;;;;;2.90;1.70;;;5.50;99.90;;;;;;5023890;28;20049;-72
2023/12/14 06:31:35;;;;;;;1.38;0.90;;;5.50;99.90;;;;;;5016307;28;20033;-72
2023/12/14 06:34:03;;;;;;;1.38;0.90;;;5.50;99.90;;;;;;5020884;28;20100;-72
2023/12/14 06:36:32;;;;;;;2.20;1.10;;;5.50;99.90;;;;;;5009297;28;20124;-72
2023/12/14 06:38:59;;;;;;;6.68;2.88;;;5.50;99.90;;;;;;5040393;28;20069;-72
2023/12/14 06:41:26;;;;;;;5.65;3.35;;;5.50;99.90;;;;;;5020856;28;20041;-72
2023/12/14 06:43:52;;;;;;;4.82;1.42;;;5.50;99.90;;;;;;5018804;28;20041;-72
2023/12/14 06:46:18;;;;;;;2.55;1.73;;;5.50;99.90;;;;;;5018449;28;20494;-72
2023/12/14 06:48:45;;;;;;;1.92;1.20;;;5.50;99.90;;;;;;5005114;28;20099;-73
2023/12/14 06:51:11;;;;;;;2.22;1.50;;;5.50;99.90;;;;;;5002747;28;20053;-72
2023/12/14 06:53:40;;;;;;;1.98;1.10;;;5.50;99.90;;;;;;5017602;28;20038;-71
2023/12/14 06:56:09;;;;;;;5.63;2.53;;;5.60;99.90;;;;;;5020886;28;20042;-72
2023/12/14 06:58:35;;;;;;;1.50;0.80;;;5.50;99.90;;;;;;5022742;28;20401;-72
2023/12/14 07:01:01;;;;;;;2.00;1.35;;;5.50;99.90;;;;;;5006518;28;20060;-71
2023/12/14 07:03:27;;;;;;;1.02;0.60;;;5.50;99.90;;;;;;5003163;28;20049;-71
2023/12/14 07:05:52;;;;;;;2.47;1.42;;;5.50;99.90;;;;;;5020486;28;20037;-71
2023/12/14 07:08:18;;;;;;;2.60;1.48;;;5.50;99.90;;;;;;5022446;28;20245;-71
2023/12/14 07:10:44;;;;;;;2.30;1.13;;;5.50;99.90;;;;;;5016695;28;20136;-72
2023/12/14 07:13:09;;;;;;;1.30;0.95;;;5.50;99.90;;;;;;5016997;28;20549;-71
2023/12/14 07:15:35;;;;;;;6.10;1.40;;;5.40;99.90;;;;;;5026930;28;20072;-72
2023/12/14 07:18:01;;;;;;;2.03;1.13;;;5.50;99.90;;;;;;5004222;28;20045;-72
2023/12/14 07:20:28;;;;;;;1.65;1.17;;;5.40;99.90;;;;;;5022008;28;20124;-72
2023/12/14 07:22:53;;;;;;;1.20;1.10;;;5.40;99.90;;;;;;5016890;28;20127;-70
2023/12/14 07:25:19;;;;;;;2.55;0.85;;;5.40;99.90;;;;;;5018428;28;20033;-70
2023/12/14 07:27:46;;;;;;;1.23;0.75;;;5.50;99.90;;;;;;5021528;28;20034;-70
2023/12/14 07:30:13;;;;;;;1.65;1.10;;;5.40;99.90;;;;;;5017447;28;20541;-70
2023/12/14 07:32:39;;;;;;;6.70;1.65;;;5.50;99.90;;;;;;5020254;28;20045;-71
2023/12/14 07:35:05;;;;;;;5.22;2.38;;;5.50;99.90;;;;;;5022596;28;20040;-70
2023/12/14 07:37:31;;;;;;;2.15;0.63;;;5.50;99.90;;;;;;5018431;28;20041;-70
2023/12/14 07:39:57;;;;;;;1.65;0.95;;;5.50;99.90;;;;;;5019934;28;20072;-70
2023/12/14 07:42:23;;;;;;;2.78;1.80;;;5.50;99.90;;;;;;5018258;28;20116;-71
2023/12/14 07:44:50;;;;;;;1.85;0.80;;;5.50;99.90;;;;;;5011138;28;20692;-71
2023/12/14 07:47:15;;;;;;;3.70;1.40;;;5.50;99.90;;;;;;5018423;28;20128;-71
2023/12/14 07:49:41;;;;;;;3.30;1.48;;;5.50;99.90;;;;;;5004026;28;20116;-71
2023/12/14 07:52:07;;;;;;;1.88;1.25;;;5.50;99.90;;;;;;5019518;28;20096;-71
2023/12/14 07:54:33;;;;;;;3.00;1.52;;;5.50;99.90;;;;;;5007436;28;20041;-70
2023/12/14 07:56:58;;;;;;;3.15;2.00;;;5.50;99.90;;;;;;5020509;28;20136;-70
2023/12/14 07:59:24;;;;;;;2.60;1.05;;;5.50;99.90;;;;;;5012434;28;20041;-70
2023/12/14 08:01:50;;;;;;;2.67;1.67;;;5.50;99.90;;;;;;5021135;28;20064;-71
2023/12/14 08:04:15;;;;;;;4.13;1.38;;;5.50;99.90;;;;;;5019235;28;20064;-71
2023/12/14 08:06:42;;;;;;;2.05;1.35;;;5.50;99.90;;;;;;5017256;28;20053;-71
2023/12/14 08:09:08;;;;;;;2.38;1.33;;;5.50;99.90;;;;;;5020742;28;20264;-71
2023/12/14 08:11:34;;;;;;;2.05;1.58;;;5.50;99.90;;;;;;5015936;28;20040;-71
2023/12/14 08:14:00;;;;;;;2.85;1.25;;;5.50;99.90;;;;;;5002968;28;20037;-71
2023/12/14 08:16:25;;;;;;;11.48;2.60;;;5.50;99.90;;;;;;5017836;28;20037;-71
2023/12/14 08:18:51;;;;;;;2.85;1.75;;;5.50;99.90;;;;;;5016128;28;20041;-71
2023/12/14 08:21:18;;;;;;;1.40;0.93;;;5.50;99.90;;;;;;5007220;28;20042;-71
2023/12/14 08:23:44;;;;;;;1.60;1.30;;;5.60;99.90;;;;;;5016389;28;20042;-71
2023/12/14 08:26:12;;;;;;;2.38;1.42;;;5.50;99.90;;;;;;5018674;28;20091;-71
2023/12/14 08:28:39;;;;;;;1.92;1.65;;;5.60;99.90;;;;;;5014628;28;20049;-71
2023/12/14 08:31:05;;;;;;;3.22;1.67;;;5.60;99.90;;;;;;5017466;28;20068;-71
2023/12/14 08:33:31;;;;;;;2.88;2.00;;;5.60;99.90;;;;;;5016282;28;20493;-71
2023/12/14 08:35:56;;;;;;;3.35;2.65;;;5.60;99.90;;;;;;4999777;28;20034;-71
2023/12/14 08:38:22;;;;;;;2.65;1.70;;;5.60;99.90;;;;;;5016803;28;20117;-71
2023/12/14 08:40:48;;;;;;;3.85;1.83;;;5.60;99.90;;;;;;5013076;28;20060;-71
2023/12/14 08:43:14;;;;;;;4.05;1.77;;;5.60;99.90;;;;;;5018647;28;20100;-71
2023/12/14 08:45:39;;;;;;;7.43;1.58;;;5.60;99.90;;;;;;5020105;28;20125;-71
2023/12/14 08:48:05;;;;;;;3.10;1.48;;;5.60;99.90;;;;;;5017092;28;20046;-71
2023/12/14 08:50:31;;;;;;;3.42;2.00;;;5.60;99.90;;;;;;5019662;28;20045;-71
2023/12/14 08:53:00;;;;;;;4.85;2.13;;;5.70;99.90;;;;;;5021040;28;20041;-71
2023/12/14 08:55:26;;;;;;;2.47;1.83;;;5.70;99.90;;;;;;5012128;28;20405;-71
2023/12/14 08:57:52;;;;;;;4.32;1.75;;;5.70;99.90;;;;;;5021358;28;20410;-71
2023/12/14 09:00:18;;;;;;;1.90;1.50;;;5.70;99.90;;;;;;5017737;28;20197;-71
2023/12/14 09:02:45;;;;;;;2.30;1.08;;;5.70;99.90;;;;;;5021152;28;20164;-71
2023/12/14 09:05:16;;;;;;;2.55;1.45;;;5.70;99.90;;;;;;5013468;28;20037;-71
2023/12/14 09:07:42;;;;;;;4.38;1.70;;;5.70;99.90;;;;;;5014446;28;20390;-71
2023/12/14 09:10:08;;;;;;;3.08;1.75;;;5.80;99.90;;;;;;5013962;28;20065;-72
2023/12/14 09:12:34;;;;;;;7.53;2.22;;;5.80;99.90;;;;;;5019264;28;20049;-71
2023/12/14 09:15:00;;;;;;;3.67;1.73;;;5.80;99.90;;;;;;5017586;28;20132;-72
2023/12/14 09:17:32;;;;;;;3.35;1.88;;;5.80;99.90;;;;;;5032844;28;20045;-71
2023/12/14 09:19:59;;;;;;;1.80;1.25;;;5.80;99.90;;;;;;5012622;28;20103;-71
2023/12/14 09:22:25;;;;;;;3.00;2.13;;;5.90;99.90;;;;;;5017561;28;20045;-72
2023/12/14 09:24:50;;;;;;;5.03;2.38;;;5.90;99.90;;;;;;4997824;28;20424;-71
2023/12/14 09:27:17;;;;;;;9.45;2.22;;;5.90;99.90;;;;;;5016387;28;20122;-71
2023/12/14 09:29:42;;;;;;;4.65;2.17;;;5.90;99.90;;;;;;5002837;28;20041;-71
2023/12/14 09:32:09;;;;;;;1.85;1.08;;;5.90;99.90;;;;;;5013217;28;20053;-72
2023/12/14 09:34:34;;;;;;;2.53;1.48;;;5.90;99.90;;;;;;5015736;28;20041;-72
2023/12/14 09:37:00;;;;;;;2.92;1.45;;;6.00;99.90;;;;;;5016966;28;20049;-72
2023/12/14 09:39:27;;;;;;;4.10;1.00;;;6.00;99.90;;;;;;5017042;28;20048;-72
2023/12/14 09:42:05;;;;;;;6.22;2.28;;;5.90;99.90;;;;;;5018158;28;20037;-71
2023/12/14 09:44:31;;;;;;;4.10;2.00;;;6.00;99.90;;;;;;5004554;28;20041;-72
2023/12/14 09:46:59;;;;;;;5.65;2.13;;;6.00;99.90;;;;;;5012247;28;20041;-72
2023/12/14 09:49:30;;;;;;;4.13;1.80;;;6.00;99.90;;;;;;5019297;28;20049;-71
2023/12/14 09:51:59;;;;;;;5.90;1.98;;;6.00;99.90;;;;;;5020663;28;20160;-71
2023/12/14 09:54:27;;;;;;;3.25;2.03;;;6.00;99.90;;;;;;5016395;28;20029;-72
2023/12/14 09:56:53;;;;;;;3.65;2.30;;;6.00;99.90;;;;;;5022079;28;20041;-72
2023/12/14 09:59:19;;;;;;;3.13;1.92;;;6.00;99.90;;;;;;5019279;28;20512;-72
2023/12/14 10:01:46;;;;;;;4.78;1.88;;;6.00;99.90;;;;;;5021011;28;20052;-71
2023/12/14 10:04:17;;;;;;;3.08;1.65;;;6.10;99.90;;;;;;5022270;28;20159;-72
2023/12/14 10:06:45;;;;;;;3.78;1.85;;;6.10;99.90;;;;;;5017032;28;20124;-71
2023/12/14 10:09:16;;;;;;;3.40;2.00;;;6.10;99.90;;;;;;5021768;28;20068;-72
2023/12/14 10:11:43;;;;;;;1.58;1.05;;;6.10;99.90;;;;;;5017919;28;20156;-72
2023/12/14 10:14:24;;;;;;;3.90;1.60;;;6.10;99.90;;;;;;5018816;28;20049;-71
2023/12/14 10:16:51;;;;;;;2.80;1.40;;;6.20;99.90;;;;;;5016355;28;20071;-72
2023/12/14 10:19:18;;;;;;;2.40;1.48;;;6.20;99.90;;;;;;5017904;28;20069;-72
2023/12/14 10:21:46;;;;;;;1.98;1.15;;;6.30;99.90;;;;;;5017721;28;20091;-72
2023/12/14 10:24:12;;;;;;;2.83;1.33;;;6.30;99.90;;;;;;5028137;28;20154;-71
2023/12/14 10:26:38;;;;;;;7.88;2.08;;;6.30;99.90;;;;;;5017230;28;20102;-72
2023/12/14 10:29:04;;;;;;;3.15;1.63;;;6.30;99.90;;;;;;5031899;28;20069;-72
2023/12/14 10:31:37;;;;;;;2.58;1.40;;;6.40;99.90;;;;;;5015731;28;20038;-72
2023/12/14 10:34:06;;;;;;;2.03;1.45;;;6.40;99.90;;;;;;5020349;28;20084;-72
2023/12/14 10:36:33;;;;;;;3.17;1.75;;;6.40;99.90;;;;;;5020736;28;20116;-72
2023/12/14 10:39:00;;;;;;;3.63;1.33;;;6.40;99.90;;;;;;5027504;28;20060;-72
2023/12/14 10:41:29;;;;;;;2.47;1.65;;;6.50;99.90;;;;;;5015011;28;20512;-72
2023/12/14 10:43:56;;;;;;;3.90;1.08;;;6.60;99.90;;;;;;5018848;28;20128;-71
2023/12/14 10:46:23;;;;;;;2.35;1.40;;;6.60;99.90;;;;;;5018624;28;20083;-72
2023/12/14 10:48:51;;;;;;;3.92;2.03;;;6.70;99.90;;;;;;5016948;28;20150;-72
2023/12/14 10:51:25;;;;;;;5.20;1.70;;;6.70;99.90;;;;;;5023423;28;20049;-72
2023/12/14 10:53:53;;;;;;;5.20;2.08;;;6.70;99.90;;;;;;5018686;28;20046;-72
2023/12/14 10:56:19;;;;;;;2.33;1.45;;;6.80;99.90;;;;;;5018322;28;20073;-72
2023/12/14 10:58:52;;;;;;;6.50;1.80;;;6.80;99.90;;;;;;5017506;28;20498;-72
2023/12/14 11:01:26;;;;;;;3.13;1.88;;;6.90;99.90;;;;;;5022239;28;20084;-72
2023/12/14 11:03:56;;;;;;;5.22;2.00;;;6.90;99.90;;;;;;5008744;28;20116;-72
2023/12/14 11:06:30;;;;;;;4.90;1.92;;;7.00;99.90;;;;;;5021987;28;20045;-72
2023/12/14 11:09:06;;;;;;;7.60;2.53;;;7.00;99.90;;;;;;5017306;28;20588;-72
2023/12/14 11:11:43;;;;;;;3.58;1.88;;;7.10;99.90;;;;;;5036552;28;20049;-72
2023/12/14 11:14:12;;;;;;;4.35;1.70;;;7.10;99.90;;;;;;5031676;28;20144;-72
2023/12/14 11:16:44;;;;;;;2.45;1.65;;;7.10;99.90;;;;;;5018469;28;20045;-72
2023/12/14 11:19:22;;;;;;;2.28;1.42;;;7.10;99.90;;;;;;5014860;28;20077;-72
2023/12/14 11:21:57;;;;;;;2.70;1.65;;;7.10;99.90;;;;;;5017791;28;20030;-72
2023/12/14 11:24:23;;;;;;;2.05;1.25;;;7.20;99.90;;;;;;5019420;28;20041;-72
2023/12/14 11:26:50;;;;;;;4.38;2.03;;;7.20;99.90;;;;;;4999840;28;20073;-72
2023/12/14 11:29:17;;;;;;;2.55;1.40;;;7.20;99.90;;;;;;5016084;28;20057;-72
2023/12/14 11:31:43;;;;;;;3.03;1.70;;;7.20;99.90;;;;;;5013370;28;20044;-72
2023/12/14 11:34:08;;;;;;;3.35;1.50;;;7.10;99.90;;;;;;5034500;28;20045;-72
2023/12/14 11:36:35;;;;;;;2.88;1.60;;;7.20;99.90;;;;;;5020340;28;20086;-72
2023/12/14 11:39:01;;;;;;;2.67;1.77;;;7.20;99.90;;;;;;5021015;28;20127;-72
2023/12/14 11:41:29;;;;;;;3.83;1.60;;;7.10;99.90;;;;;;5017108;28;20108;-72
2023/12/14 11:43:55;;;;;;;3.30;1.23;;;7.10;99.90;;;;;;5019024;28;20041;-72
2023/12/14 11:46:21;;;;;;;6.18;2.15;;;7.20;99.90;;;;;;5017811;28;20033;-72
2023/12/14 11:48:51;;;;;;;3.70;1.70;;;7.20;99.90;;;;;;5022366;28;20053;-72
2023/12/14 11:51:17;;;;;;;2.90;1.88;;;7.20;99.90;;;;;;5020539;28;20045;-72
2023/12/14 11:53:48;;;;;;;1.85;1.25;;;7.20;99.90;;;;;;5020490;28;20041;-72
2023/12/14 11:56:18;;;;;;;4.00;1.52;;;7.30;99.90;;;;;;5020719;28;20068;-72
2023/12/14 11:58:45;;;;;;;2.58;1.45;;;7.30;99.90;;;;;;5015275;28;20048;-72
2023/12/14 12:01:16;;;;;;;3.78;1.50;;;7.30;99.90;;;;;;5003869;28;20046;-72
2023/12/14 12:03:43;;;;;;;1.88;1.05;;;7.30;99.90;;;;;;5023512;28;20041;-72
2023/12/14 12:06:23;;;;;;;6.82;1.77;;;7.40;99.90;;;;;;5019179;28;20044;-72
2023/12/14 12:08:49;;;;;;;3.47;1.77;;;7.40;99.90;;;;;;5019217;28;20061;-72
2023/12/14 12:11:19;;;;;;;1.92;1.40;;;7.40;99.90;;;;;;5014071;28;20429;-72
2023/12/14 12:13:50;;;;;;;1.98;1.30;;;7.50;99.90;;;;;;5021033;28;20493;-72
2023/12/14 12:16:16;;;;;;;4.10;1.90;;;7.40;99.90;;;;;;5017164;28;20050;-72
2023/12/14 12:18:42;;;;;;;5.70;1.92;;;7.50;99.90;;;;;;5020550;28;20099;-72
2023/12/14 12:21:08;;;;;;;1.63;1.20;;;7.50;99.90;;;;;;5019322;28;20077;-72
2023/12/14 12:23:35;;;;;;;3.38;1.88;;;7.50;99.90;;;;;;5037532;28;20099;-73
2023/12/14 12:26:00;;;;;;;3.42;1.63;;;7.50;99.90;;;;;;5020578;28;20410;-72
2023/12/14 12:28:27;;;;;;;1.90;1.20;;;7.50;99.90;;;;;;5017918;28;20347;-73
2023/12/14 12:30:52;;;;;;;2.35;1.15;;;7.50;99.90;;;;;;5016997;28;20128;-72
2023/12/14 12:33:18;;;;;;;4.10;1.75;;;7.50;99.90;;;;;;5020219;28;20133;-72
2023/12/14 12:35:44;;;;;;;6.88;0.90;;;7.50;99.90;;;;;;5018461;28;20490;-73
2023/12/14 12:38:10;;;;;;;1.48;0.95;;;7.50;99.90;;;;;;5023948;28;20132;-72
2023/12/14 12:40:36;;;;;;;2.83;1.10;;;7.50;99.90;;;;;;5019389;28;20034;-73
2023/12/14 12:43:02;;;;;;;2.67;1.52;;;7.50;99.90;;;;;;5023698;28;20037;-73
2023/12/14 12:45:28;;;;;;;1.95;1.35;;;7.40;99.90;;;;;;5019165;28;20513;-73
2023/12/14 12:47:54;;;;;;;4.85;1.70;;;7.40;99.90;;;;;;4996378;28;20041;-73
2023/12/14 12:50:20;;;;;;;1.70;1.00;;;7.40;99.90;;;;;;5023083;28;20033;-73
2023/12/14 12:52:48;;;;;;;1.75;1.25;;;7.40;99.90;;;;;;5022035;28;20060;-72
2023/12/14 12:55:14;;;;;;;10.90;4.50;;;7.30;99.90;;;;;;5016707;28;20417;-72